createdAt,value
2023-12-17T00:00:55.232Z,9.457157
2023-12-17T00:01:55.044Z,9.457275
2023-12-17T00:03:16.946Z,9.457298
2023-12-17T00:03:56.076Z,9.457406
2023-12-17T00:04:55.214Z,9.457328
2023-12-17T00:05:55.269Z,9.457271
2023-12-17T00:06:55.040Z,9.457326
2023-12-17T00:07:55.109Z,9.457422
2023-12-17T00:08:54.992Z,9.457316
2023-12-17T00:09:55.002Z,9.456822
2023-12-17T00:10:54.951Z,9.456988
2023-12-17T00:11:55.049Z,9.457192
2023-12-17T00:12:54.918Z,9.457201
2023-12-17T00:13:54.907Z,9.457193
2023-12-17T00:14:55.018Z,9.457179
2023-12-17T00:15:54.890Z,9.457287
2023-12-17T00:16:54.898Z,9.457330
2023-12-17T00:17:54.989Z,9.457316
2023-12-17T00:18:55.158Z,9.457435
2023-12-17T00:19:54.915Z,9.457350
2023-12-17T00:20:54.900Z,9.457289
2023-12-17T00:21:54.834Z,9.457279
2023-12-17T00:22:54.830Z,9.457282
2023-12-17T00:23:54.874Z,9.457424
2023-12-17T00:24:54.795Z,9.457363
2023-12-17T00:25:54.785Z,9.457236
2023-12-17T00:26:54.803Z,9.457238
2023-12-17T00:27:54.764Z,9.457238
2023-12-17T00:28:54.775Z,9.457302
2023-12-17T00:29:54.773Z,9.457228
2023-12-17T00:30:54.759Z,9.457178
2023-12-17T00:32:00.695Z,9.457251
2023-12-17T00:32:55.857Z,9.457189
2023-12-17T00:33:54.998Z,9.457170
2023-12-17T00:34:54.691Z,9.457319
2023-12-17T00:35:54.701Z,9.457335
2023-12-17T00:36:54.668Z,9.457276
2023-12-17T00:37:54.674Z,9.457286
2023-12-17T00:38:54.661Z,9.457292
2023-12-17T00:39:54.664Z,9.457224
2023-12-17T00:40:54.659Z,9.457282
2023-12-17T00:41:54.704Z,9.457082
2023-12-17T00:42:54.625Z,9.457090
2023-12-17T00:43:54.600Z,9.457259
2023-12-17T00:44:54.609Z,9.457248
2023-12-17T00:45:54.577Z,9.457233
2023-12-17T00:46:54.594Z,9.457148
2023-12-17T00:47:54.715Z,9.457197
2023-12-17T00:48:54.717Z,9.457230
2023-12-17T00:49:54.617Z,9.457274
2023-12-17T00:50:54.547Z,9.456882
2023-12-17T00:51:54.548Z,9.456714
2023-12-17T00:52:54.529Z,9.456801
2023-12-17T00:53:54.548Z,9.457021
2023-12-17T00:54:54.514Z,9.457150
2023-12-17T00:55:54.486Z,9.457176
2023-12-17T00:56:54.563Z,9.457109
2023-12-17T00:57:54.466Z,9.456933
2023-12-17T00:58:54.456Z,9.457108
2023-12-17T01:00:26.405Z,9.457104
2023-12-17T01:00:56.126Z,9.457215
2023-12-17T01:01:54.478Z,9.457136
2023-12-17T01:02:54.486Z,9.457056
2023-12-17T01:03:54.482Z,9.457365
2023-12-17T01:04:54.404Z,9.457236
2023-12-17T01:05:54.582Z,9.457187
2023-12-17T01:06:54.423Z,9.457216
2023-12-17T01:07:54.358Z,9.457236
2023-12-17T01:08:54.400Z,9.457214
2023-12-17T01:09:54.352Z,9.457207
2023-12-17T01:10:54.353Z,9.457063
2023-12-17T01:11:54.400Z,9.457051
2023-12-17T01:12:54.309Z,9.457171
2023-12-17T01:13:54.365Z,9.457402
2023-12-17T01:14:54.452Z,9.457222
2023-12-17T01:15:54.370Z,9.457083
2023-12-17T01:16:54.269Z,9.457251
2023-12-17T01:17:54.494Z,9.457170
2023-12-17T01:18:54.475Z,9.457037
2023-12-17T01:19:54.477Z,9.457158
2023-12-17T01:20:54.284Z,9.457147
2023-12-17T01:21:54.230Z,9.457238
2023-12-17T01:22:54.252Z,9.457152
2023-12-17T01:23:54.243Z,9.457120
2023-12-17T01:24:54.232Z,9.457088
2023-12-17T01:25:54.178Z,9.457184
2023-12-17T01:26:54.224Z,9.457166
2023-12-17T01:27:54.156Z,9.457106
2023-12-17T01:28:54.168Z,9.457108
2023-12-17T01:29:54.188Z,9.457162
2023-12-17T01:30:54.177Z,9.457090
2023-12-17T01:31:55.128Z,9.457000
2023-12-17T01:32:54.247Z,9.456892
2023-12-17T01:33:54.236Z,9.456977
2023-12-17T01:34:54.098Z,9.456923
2023-12-17T01:35:54.118Z,9.456999
2023-12-17T01:36:54.089Z,9.456687
2023-12-17T01:37:54.073Z,9.456897
2023-12-17T01:38:54.128Z,9.457162
2023-12-17T01:39:54.037Z,9.457091
2023-12-17T01:40:54.024Z,9.456940
2023-12-17T01:41:54.066Z,9.456991
2023-12-17T01:42:54.110Z,9.456988
2023-12-17T01:43:54.010Z,9.457117
2023-12-17T01:44:54.001Z,9.458055
2023-12-17T01:45:54.014Z,9.457612
2023-12-17T01:46:53.964Z,9.457221
2023-12-17T01:47:54.084Z,9.457088
2023-12-17T01:48:54.089Z,9.457098
2023-12-17T01:49:53.963Z,9.456962
2023-12-17T01:50:53.937Z,9.457027
2023-12-17T01:51:53.930Z,9.457021
2023-12-17T01:52:53.934Z,9.456957
2023-12-17T01:53:53.918Z,9.456980
2023-12-17T01:54:53.890Z,9.457062
2023-12-17T01:55:53.873Z,9.456903
2023-12-17T01:56:53.940Z,9.456860
2023-12-17T01:57:53.896Z,9.456903
2023-12-17T01:58:53.855Z,9.456960
2023-12-17T01:59:53.885Z,9.457092
2023-12-17T02:00:53.882Z,9.457038
2023-12-17T02:01:53.836Z,9.457033
2023-12-17T02:02:53.884Z,9.457079
2023-12-17T02:03:53.916Z,9.457061
2023-12-17T02:04:53.782Z,9.457004
2023-12-17T02:05:53.804Z,9.457060
2023-12-17T02:06:53.877Z,9.457129
2023-12-17T02:07:53.753Z,9.457236
2023-12-17T02:08:54.780Z,9.457335
2023-12-17T02:09:53.736Z,9.457140
2023-12-17T02:10:53.762Z,9.457193
2023-12-17T02:11:53.744Z,9.457163
2023-12-17T02:12:53.718Z,9.457236
2023-12-17T02:13:53.715Z,9.457154
2023-12-17T02:14:53.696Z,9.457134
2023-12-17T02:15:53.696Z,9.457183
2023-12-17T02:16:53.677Z,9.457158
2023-12-17T02:17:53.929Z,9.457126
2023-12-17T02:18:53.883Z,9.457156
2023-12-17T02:19:53.637Z,9.457181
2023-12-17T02:20:53.656Z,9.457399
2023-12-17T02:21:53.622Z,9.457469
2023-12-17T02:22:53.644Z,9.457302
2023-12-17T02:23:53.639Z,9.457215
2023-12-17T02:24:53.636Z,9.457190
2023-12-17T02:25:53.607Z,9.457188
2023-12-17T02:26:53.602Z,9.457244
2023-12-17T02:27:53.570Z,9.457281
2023-12-17T02:28:53.559Z,9.457058
2023-12-17T02:29:53.659Z,9.457303
2023-12-17T02:30:53.575Z,9.457280
2023-12-17T02:31:53.521Z,9.457279
2023-12-17T02:32:53.597Z,9.457237
2023-12-17T02:33:53.656Z,9.457164
2023-12-17T02:34:53.575Z,9.457244
2023-12-17T02:35:53.516Z,9.457209
2023-12-17T02:36:53.484Z,9.457187
2023-12-17T02:37:53.481Z,9.457156
2023-12-17T02:38:53.488Z,9.457235
2023-12-17T02:39:53.460Z,9.457238
2023-12-17T02:40:53.432Z,9.457301
2023-12-17T02:41:53.436Z,9.457253
2023-12-17T02:42:53.416Z,9.457152
2023-12-17T02:43:53.420Z,9.457167
2023-12-17T02:44:53.418Z,9.457240
2023-12-17T02:45:53.387Z,9.457278
2023-12-17T02:46:53.385Z,9.457197
2023-12-17T02:47:53.459Z,9.457203
2023-12-17T02:48:53.721Z,9.457163
2023-12-17T02:49:54.363Z,9.457113
2023-12-17T02:50:53.428Z,9.457062
2023-12-17T02:51:53.319Z,9.457266
2023-12-17T02:52:53.320Z,9.457431
2023-12-17T02:53:53.316Z,9.457317
2023-12-17T02:54:53.293Z,9.457226
2023-12-17T02:55:53.277Z,9.457154
2023-12-17T02:56:53.309Z,9.457242
2023-12-17T02:57:53.301Z,9.457273
2023-12-17T02:58:53.244Z,9.457312
2023-12-17T02:59:53.257Z,9.457239
2023-12-17T03:00:53.317Z,9.457191
2023-12-17T03:01:53.220Z,9.457149
2023-12-17T03:02:53.297Z,9.457172
2023-12-17T03:03:53.261Z,9.457308
2023-12-17T03:04:53.227Z,9.457415
2023-12-17T03:05:53.212Z,9.457264
2023-12-17T03:06:53.190Z,9.457192
2023-12-17T03:07:53.185Z,9.457199
2023-12-17T03:08:53.193Z,9.457088
2023-12-17T03:09:53.190Z,9.457046
2023-12-17T03:10:53.133Z,9.457255
2023-12-17T03:11:53.147Z,9.457408
2023-12-17T03:12:53.116Z,9.457358
2023-12-17T03:13:53.105Z,9.457123
2023-12-17T03:14:53.094Z,9.457023
2023-12-17T03:15:53.082Z,9.457138
2023-12-17T03:16:53.082Z,9.457314
2023-12-17T03:17:53.107Z,9.457114
2023-12-17T03:18:54.066Z,9.457187
2023-12-17T03:19:53.069Z,9.457223
2023-12-17T03:20:53.104Z,9.457215
2023-12-17T03:21:53.050Z,9.457329
2023-12-17T03:22:53.017Z,9.457243
2023-12-17T03:23:53.068Z,9.457242
2023-12-17T03:24:53.004Z,9.457249
2023-12-17T03:25:53.036Z,9.457278
2023-12-17T03:26:52.994Z,9.457259
2023-12-17T03:27:52.964Z,9.457302
2023-12-17T03:28:52.957Z,9.457205
2023-12-17T03:29:52.987Z,9.457140
2023-12-17T03:30:53.039Z,9.457138
2023-12-17T03:31:52.949Z,9.457203
2023-12-17T03:32:53.086Z,9.457204
2023-12-17T03:33:53.060Z,9.457276
2023-12-17T03:34:52.934Z,9.457232
2023-12-17T03:35:52.928Z,9.457185
2023-12-17T03:36:52.874Z,9.457212
2023-12-17T03:37:52.864Z,9.457224
2023-12-17T03:38:52.880Z,9.457242
2023-12-17T03:39:52.862Z,9.457128
2023-12-17T03:40:52.829Z,9.456983
2023-12-17T03:41:52.840Z,9.457170
2023-12-17T03:42:52.826Z,9.457125
2023-12-17T03:43:52.792Z,9.457096
2023-12-17T03:44:52.834Z,9.457130
2023-12-17T03:45:52.790Z,9.457222
2023-12-17T03:46:52.762Z,9.457091
2023-12-17T03:47:52.913Z,9.457008
2023-12-17T03:48:52.883Z,9.457039
2023-12-17T03:49:52.819Z,9.457107
2023-12-17T03:50:52.755Z,9.457194
2023-12-17T03:51:52.720Z,9.457171
2023-12-17T03:52:52.706Z,9.457217
2023-12-17T03:53:52.743Z,9.457262
2023-12-17T03:54:52.707Z,9.457187
2023-12-17T03:55:52.677Z,9.457172
2023-12-17T03:56:52.695Z,9.457133
2023-12-17T03:57:52.662Z,9.457170
2023-12-17T03:58:52.662Z,9.457075
2023-12-17T03:59:52.659Z,9.457200
2023-12-17T04:00:52.649Z,9.457302
2023-12-17T04:01:52.625Z,9.457244
2023-12-17T04:02:52.664Z,9.457244
2023-12-17T04:03:52.716Z,9.457219
2023-12-17T04:04:52.638Z,9.457205
2023-12-17T04:05:52.586Z,9.457131
2023-12-17T04:06:52.561Z,9.457082
2023-12-17T04:07:52.576Z,9.457116
2023-12-17T04:08:54.687Z,9.457110
2023-12-17T04:09:53.542Z,9.457138
2023-12-17T04:10:52.538Z,9.457208
2023-12-17T04:11:52.556Z,9.457107
2023-12-17T04:12:52.539Z,9.457144
2023-12-17T04:13:52.494Z,9.457232
2023-12-17T04:14:52.519Z,9.457259
2023-12-17T04:15:52.476Z,9.457088
2023-12-17T04:16:52.500Z,9.457006
2023-12-17T04:17:52.534Z,9.457096
2023-12-17T04:18:52.639Z,9.457026
2023-12-17T04:19:52.472Z,9.457075
2023-12-17T04:20:52.450Z,9.457067
2023-12-17T04:21:53.439Z,9.457130
2023-12-17T04:22:52.416Z,9.456970
2023-12-17T04:23:52.417Z,9.457150
2023-12-17T04:24:52.390Z,9.457159
2023-12-17T04:25:52.380Z,9.457148
2023-12-17T04:26:52.406Z,9.457184
2023-12-17T04:27:52.364Z,9.457198
2023-12-17T04:28:52.350Z,9.457170
2023-12-17T04:29:52.374Z,9.457215
2023-12-17T04:30:52.395Z,9.457183
2023-12-17T04:31:52.392Z,9.457029
2023-12-17T04:32:52.425Z,9.457141
2023-12-17T04:33:52.380Z,9.457092
2023-12-17T04:34:52.289Z,9.457212
2023-12-17T04:35:52.326Z,9.457227
2023-12-17T04:36:52.300Z,9.457236
2023-12-17T04:37:52.284Z,9.457200
2023-12-17T04:38:52.339Z,9.457149
2023-12-17T04:39:52.245Z,9.457285
2023-12-17T04:40:52.651Z,9.457218
2023-12-17T04:41:52.230Z,9.457076
2023-12-17T04:42:52.220Z,9.457163
2023-12-17T04:43:52.207Z,9.457004
2023-12-17T04:44:52.492Z,9.457105
2023-12-17T04:45:52.198Z,9.457190
2023-12-17T04:46:52.160Z,9.457125
2023-12-17T04:47:52.321Z,9.457290
2023-12-17T04:48:52.233Z,9.457276
2023-12-17T04:49:52.216Z,9.457195
2023-12-17T04:50:52.149Z,9.457121
2023-12-17T04:51:52.105Z,9.457112
2023-12-17T04:52:52.099Z,9.457031
2023-12-17T04:53:52.122Z,9.457170
2023-12-17T04:54:52.098Z,9.457137
2023-12-17T04:55:52.073Z,9.457246
2023-12-17T04:56:52.143Z,9.457133
2023-12-17T04:57:52.208Z,9.457198
2023-12-17T04:58:52.074Z,9.457341
2023-12-17T04:59:52.102Z,9.457121
2023-12-17T05:00:52.082Z,9.457137
2023-12-17T05:01:52.017Z,9.457247
2023-12-17T05:02:52.138Z,9.457168
2023-12-17T05:03:52.086Z,9.457250
2023-12-17T05:04:52.083Z,9.457279
2023-12-17T05:05:52.063Z,9.456985
2023-12-17T05:06:52.143Z,9.457133
2023-12-17T05:07:52.096Z,9.457222
2023-12-17T05:08:51.998Z,9.457280
2023-12-17T05:09:51.940Z,9.457170
2023-12-17T05:10:52.159Z,9.457114
2023-12-17T05:11:52.937Z,9.457204
2023-12-17T05:12:51.920Z,9.457244
2023-12-17T05:13:51.912Z,9.457240
2023-12-17T05:14:51.901Z,9.457397
2023-12-17T05:15:51.877Z,9.457321
2023-12-17T05:16:51.871Z,9.457191
2023-12-17T05:17:52.085Z,9.457250
2023-12-17T05:18:52.034Z,9.457227
2023-12-17T05:19:51.980Z,9.457081
2023-12-17T05:20:51.937Z,9.457210
2023-12-17T05:21:51.815Z,9.457324
2023-12-17T05:22:51.814Z,9.457201
2023-12-17T05:23:51.825Z,9.457323
2023-12-17T05:24:51.787Z,9.457143
2023-12-17T05:25:51.761Z,9.457232
2023-12-17T05:26:51.802Z,9.457208
2023-12-17T05:27:51.762Z,9.457090
2023-12-17T05:28:51.737Z,9.457152
2023-12-17T05:29:51.854Z,9.457074
2023-12-17T05:30:51.857Z,9.457030
2023-12-17T05:31:51.711Z,9.457256
2023-12-17T05:32:51.810Z,9.457241
2023-12-17T05:33:51.797Z,9.457300
2023-12-17T05:34:51.674Z,9.457253
2023-12-17T05:35:51.702Z,9.457170
2023-12-17T05:36:51.673Z,9.457274
2023-12-17T05:37:51.638Z,9.457251
2023-12-17T05:38:51.661Z,9.457211
2023-12-17T05:39:51.614Z,9.457088
2023-12-17T05:40:51.632Z,9.457283
2023-12-17T05:41:51.659Z,9.457223
2023-12-17T05:42:51.603Z,9.457155
2023-12-17T05:43:51.734Z,9.457278
2023-12-17T05:44:51.647Z,9.457142
2023-12-17T05:45:58.496Z,9.457208
2023-12-17T05:46:52.589Z,9.457116
2023-12-17T05:47:51.681Z,9.457272
2023-12-17T05:48:51.632Z,9.457183
2023-12-17T05:49:51.957Z,9.457315
2023-12-17T05:50:51.642Z,9.457181
2023-12-17T05:51:53.145Z,9.457239
2023-12-17T05:52:51.495Z,9.457101
2023-12-17T05:53:51.557Z,9.457181
2023-12-17T05:54:51.502Z,9.457127
2023-12-17T05:55:51.481Z,9.457138
2023-12-17T05:56:51.473Z,9.457163
2023-12-17T05:57:51.466Z,9.456959
2023-12-17T05:58:51.422Z,9.456380
2023-12-17T05:59:51.448Z,9.456816
2023-12-17T06:00:51.436Z,9.457180
2023-12-17T06:01:51.397Z,9.456757
2023-12-17T06:02:51.402Z,9.456657
2023-12-17T06:03:51.498Z,9.456704
2023-12-17T06:04:51.414Z,9.456737
2023-12-17T06:05:51.500Z,9.456991
2023-12-17T06:06:51.449Z,9.456826
2023-12-17T06:07:51.331Z,9.456727
2023-12-17T06:08:51.381Z,9.456697
2023-12-17T06:09:51.313Z,9.457071
2023-12-17T06:10:51.317Z,9.457282
2023-12-17T06:11:51.405Z,9.457085
2023-12-17T06:12:51.394Z,9.457017
2023-12-17T06:13:51.283Z,9.457145
2023-12-17T06:14:51.338Z,9.457376
2023-12-17T06:15:51.254Z,9.457238
2023-12-17T06:16:51.239Z,9.457335
2023-12-17T06:17:51.456Z,9.457275
2023-12-17T06:18:51.564Z,9.457068
2023-12-17T06:19:51.341Z,9.457068
2023-12-17T06:20:51.257Z,9.457197
2023-12-17T06:21:51.240Z,9.457048
2023-12-17T06:22:51.216Z,9.457090
2023-12-17T06:23:51.189Z,9.457103
2023-12-17T06:24:51.160Z,9.457034
2023-12-17T06:25:51.153Z,9.457101
2023-12-17T06:26:51.166Z,9.457009
2023-12-17T06:27:51.154Z,9.457146
2023-12-17T06:28:51.136Z,9.457191
2023-12-17T06:29:51.159Z,9.457216
2023-12-17T06:30:51.148Z,9.457335
2023-12-17T06:31:51.144Z,9.457160
2023-12-17T06:32:51.273Z,9.457294
2023-12-17T06:33:51.173Z,9.457156
2023-12-17T06:34:51.064Z,9.457165
2023-12-17T06:35:51.126Z,9.456729
2023-12-17T06:36:51.072Z,9.456956
2023-12-17T06:37:51.031Z,9.456759
2023-12-17T06:38:51.102Z,9.457143
2023-12-17T06:39:51.070Z,9.457181
2023-12-17T06:40:51.004Z,9.457221
2023-12-17T06:41:51.023Z,9.457246
2023-12-17T06:42:51.082Z,9.457199
2023-12-17T06:43:50.975Z,9.457627
2023-12-17T06:44:50.988Z,9.457524
2023-12-17T06:45:50.974Z,9.457389
2023-12-17T06:46:51.200Z,9.457403
2023-12-17T06:47:51.021Z,9.457054
2023-12-17T06:48:51.069Z,9.457298
2023-12-17T06:49:50.933Z,9.456963
2023-12-17T06:50:50.954Z,9.457334
2023-12-17T06:51:50.896Z,9.457273
2023-12-17T06:52:51.007Z,9.456751
2023-12-17T06:53:52.764Z,9.457051
2023-12-17T06:54:51.866Z,9.457286
2023-12-17T06:55:50.879Z,9.457256
2023-12-17T06:56:50.864Z,9.457169
2023-12-17T06:57:50.858Z,9.457177
2023-12-17T06:58:50.839Z,9.457217
2023-12-17T06:59:50.881Z,9.457474
2023-12-17T07:07:10.535Z,9.457238
2023-12-17T07:08:10.500Z,9.457457
2023-12-17T07:09:10.536Z,9.457253
2023-12-17T07:10:10.504Z,9.457176
2023-12-17T07:11:10.478Z,9.457067
2023-12-17T07:12:10.511Z,9.457286
2023-12-17T07:13:10.463Z,9.457366
2023-12-17T07:14:10.490Z,9.457163
2023-12-17T07:15:10.494Z,9.457204
2023-12-17T07:16:10.435Z,9.457039
2023-12-17T07:17:10.417Z,9.457500
2023-12-17T07:18:10.463Z,9.457621
2023-12-17T07:19:10.542Z,9.457319
2023-12-17T07:20:10.399Z,9.457231
2023-12-17T07:21:10.495Z,9.457067
2023-12-17T07:22:10.377Z,9.457401
2023-12-17T07:23:10.421Z,9.457352
2023-12-17T07:24:10.431Z,9.457458
2023-12-17T07:25:10.417Z,9.457384
2023-12-17T07:26:10.354Z,9.457328
2023-12-17T07:27:10.436Z,9.457406
2023-12-17T07:28:10.469Z,9.457477
2023-12-17T07:29:10.376Z,9.457331
2023-12-17T07:30:10.458Z,9.457263
2023-12-17T07:31:10.435Z,9.457397
2023-12-17T07:32:10.307Z,9.457377
2023-12-17T07:33:10.469Z,9.457315
2023-12-17T07:34:10.372Z,9.457323
2023-12-17T07:35:10.247Z,9.457325
2023-12-17T07:36:10.293Z,9.457349
2023-12-17T07:37:10.243Z,9.457598
2023-12-17T07:38:10.241Z,9.457563
2023-12-17T07:39:10.282Z,9.457528
2023-12-17T07:40:10.192Z,9.457692
2023-12-17T07:41:10.194Z,9.457706
2023-12-17T07:42:10.266Z,9.457639
2023-12-17T07:43:10.165Z,9.457582
2023-12-17T07:44:10.157Z,9.457773
2023-12-17T07:45:10.217Z,9.457685
2023-12-17T07:46:10.137Z,9.457910
2023-12-17T07:47:10.126Z,9.457900
2023-12-17T07:48:10.300Z,9.457526
2023-12-17T07:49:10.204Z,9.457394
2023-12-17T07:50:10.084Z,9.457360
2023-12-17T07:51:10.142Z,9.457226
2023-12-17T07:52:10.126Z,9.457034
2023-12-17T07:53:10.103Z,9.457084
2023-12-17T07:54:10.069Z,9.456693
2023-12-17T07:55:10.036Z,9.457376
2023-12-17T07:56:10.052Z,9.457399
2023-12-17T07:57:10.049Z,9.457556
2023-12-17T07:58:10.011Z,9.457499
2023-12-17T07:59:09.997Z,9.457520
2023-12-17T08:00:10.039Z,9.457479
2023-12-17T08:01:10.035Z,9.457439
2023-12-17T08:02:09.980Z,9.457434
2023-12-17T08:03:10.091Z,9.457398
2023-12-17T08:04:10.082Z,9.457391
2023-12-17T08:05:10.055Z,9.457598
2023-12-17T08:06:10.019Z,9.457593
2023-12-17T08:07:09.986Z,9.457306
2023-12-17T08:08:09.922Z,9.457343
2023-12-17T08:09:09.944Z,9.457385
2023-12-17T08:10:09.948Z,9.457367
2023-12-17T08:11:09.877Z,9.457330
2023-12-17T08:12:10.003Z,9.457197
2023-12-17T08:13:09.852Z,9.457283
2023-12-17T08:14:09.872Z,9.457234
2023-12-17T08:15:09.868Z,9.457160
2023-12-17T08:16:09.867Z,9.457339
2023-12-17T08:17:09.821Z,9.457494
2023-12-17T08:18:09.902Z,9.457439
2023-12-17T08:19:09.842Z,9.457490
2023-12-17T08:20:09.806Z,9.457407
2023-12-17T08:21:09.828Z,9.457427
2023-12-17T08:22:09.866Z,9.457397
2023-12-17T08:23:09.752Z,9.457355
2023-12-17T08:24:09.810Z,9.457319
2023-12-17T08:25:09.751Z,9.457402
2023-12-17T08:26:09.729Z,9.457424
2023-12-17T08:27:09.806Z,9.457405
2023-12-17T08:28:09.731Z,9.457526
2023-12-17T08:29:09.720Z,9.457448
2023-12-17T08:30:09.804Z,9.457379
2023-12-17T08:31:09.742Z,9.457410
2023-12-17T08:32:09.680Z,9.457323
2023-12-17T08:33:09.812Z,9.457443
2023-12-17T08:34:09.735Z,9.457319
2023-12-17T08:35:09.657Z,9.457472
2023-12-17T08:36:09.642Z,9.457292
2023-12-17T08:37:09.635Z,9.457233
2023-12-17T08:38:09.621Z,9.457303
2023-12-17T08:39:09.624Z,9.457378
2023-12-17T08:40:09.590Z,9.457172
2023-12-17T08:41:09.574Z,9.457206
2023-12-17T08:42:09.601Z,9.457329
2023-12-17T08:43:09.605Z,9.457488
2023-12-17T08:44:09.573Z,9.457173
2023-12-17T08:45:09.596Z,9.457060
2023-12-17T08:46:09.533Z,9.457051
2023-12-17T08:47:09.554Z,9.457004
2023-12-17T08:48:09.660Z,9.457130
2023-12-17T08:49:09.623Z,9.456848
2023-12-17T08:50:09.482Z,9.457161
2023-12-17T08:51:09.515Z,9.456986
2023-12-17T08:52:09.493Z,9.457263
2023-12-17T08:53:10.450Z,9.456989
2023-12-17T08:54:09.499Z,9.457185
2023-12-17T08:55:09.460Z,9.457346
2023-12-17T08:56:09.424Z,9.457398
2023-12-17T08:57:09.608Z,9.457265
2023-12-17T08:58:09.397Z,9.457252
2023-12-17T08:59:09.392Z,9.457296
2023-12-17T09:00:09.514Z,9.457340
2023-12-17T09:01:09.393Z,9.457306
2023-12-17T09:02:09.398Z,9.457383
2023-12-17T09:03:09.448Z,9.457376
2023-12-17T09:04:09.433Z,9.457475
2023-12-17T09:05:09.338Z,9.457425
2023-12-17T09:06:09.385Z,9.457394
2023-12-17T09:07:09.319Z,9.457372
2023-12-17T09:08:09.353Z,9.457281
2023-12-17T09:09:09.309Z,9.457418
2023-12-17T09:10:09.286Z,9.457445
2023-12-17T09:11:09.316Z,9.457376
2023-12-17T09:12:09.293Z,9.457308
2023-12-17T09:13:09.296Z,9.457313
2023-12-17T09:14:09.253Z,9.457441
2023-12-17T09:15:09.318Z,9.457331
2023-12-17T09:16:09.245Z,9.457384
2023-12-17T09:17:09.218Z,9.457471
2023-12-17T09:18:09.545Z,9.457449
2023-12-17T09:19:09.321Z,9.457314
2023-12-17T09:20:09.220Z,9.457499
2023-12-17T09:21:09.199Z,9.457564
2023-12-17T09:22:09.154Z,9.457516
2023-12-17T09:23:09.157Z,9.457365
2023-12-17T09:24:09.188Z,9.457319
2023-12-17T09:25:09.191Z,9.457370
2023-12-17T09:26:09.123Z,9.457280
2023-12-17T09:27:09.146Z,9.457342
2023-12-17T09:28:09.108Z,9.457506
2023-12-17T09:29:10.111Z,9.457632
2023-12-17T09:30:09.251Z,9.457358
2023-12-17T09:31:09.145Z,9.457398
2023-12-17T09:32:09.066Z,9.457497
2023-12-17T09:33:09.256Z,9.457587
2023-12-17T09:34:09.210Z,9.457619
2023-12-17T09:35:09.028Z,9.457179
2023-12-17T09:36:09.062Z,9.457252
2023-12-17T09:37:09.011Z,9.457402
2023-12-17T09:38:12.374Z,9.457312
2023-12-17T09:39:10.022Z,9.457355
2023-12-17T09:40:08.989Z,9.457420
2023-12-17T09:41:08.960Z,9.457541
2023-12-17T09:42:09.004Z,9.457511
2023-12-17T09:43:08.959Z,9.457379
2023-12-17T09:44:08.957Z,9.457189
2023-12-17T09:45:08.952Z,9.457277
2023-12-17T09:46:08.940Z,9.457329
2023-12-17T09:47:08.913Z,9.457363
2023-12-17T09:48:09.108Z,9.457218
2023-12-17T09:49:08.953Z,9.457351
2023-12-17T09:50:08.903Z,9.457225
2023-12-17T09:51:08.922Z,9.457276
2023-12-17T09:52:08.859Z,9.457504
2023-12-17T09:53:08.890Z,9.457510
2023-12-17T09:54:08.867Z,9.457344
2023-12-17T09:55:08.834Z,9.457235
2023-12-17T09:56:08.810Z,9.457289
2023-12-17T09:57:08.883Z,9.457467
2023-12-17T09:58:08.810Z,9.457371
2023-12-17T09:59:08.782Z,9.457309
2023-12-17T10:00:08.908Z,9.457322
2023-12-17T10:01:08.950Z,9.457278
2023-12-17T10:02:08.923Z,9.457289
2023-12-17T10:03:08.840Z,9.457285
2023-12-17T10:04:08.800Z,9.457376
2023-12-17T10:05:08.777Z,9.457355
2023-12-17T10:06:08.752Z,9.457305
2023-12-17T10:07:08.729Z,9.457301
2023-12-17T10:08:08.703Z,9.457334
2023-12-17T10:09:08.820Z,9.457415
2023-12-17T10:10:08.689Z,9.457510
2023-12-17T10:11:08.689Z,9.457392
2023-12-17T10:12:08.700Z,9.457253
2023-12-17T10:13:09.654Z,9.457335
2023-12-17T10:14:08.639Z,9.457326
2023-12-17T10:15:08.671Z,9.457335
2023-12-17T10:16:08.634Z,9.457368
2023-12-17T10:17:08.616Z,9.457365
2023-12-17T10:18:08.865Z,9.457343
2023-12-17T10:19:08.674Z,9.457321
2023-12-17T10:20:08.671Z,9.457186
2023-12-17T10:21:08.620Z,9.457264
2023-12-17T10:22:08.568Z,9.457178
2023-12-17T10:23:08.547Z,9.457247
2023-12-17T10:24:08.568Z,9.457165
2023-12-17T10:25:08.557Z,9.457198
2023-12-17T10:26:08.531Z,9.457179
2023-12-17T10:27:08.573Z,9.457222
2023-12-17T10:28:08.493Z,9.457277
2023-12-17T10:29:08.505Z,9.457398
2023-12-17T10:30:08.562Z,9.457331
2023-12-17T10:31:08.618Z,9.457047
2023-12-17T10:32:08.452Z,9.457062
2023-12-17T10:33:08.527Z,9.457296
2023-12-17T10:34:08.623Z,9.457205
2023-12-17T10:35:08.606Z,9.457253
2023-12-17T10:36:08.457Z,9.457339
2023-12-17T10:37:08.414Z,9.457459
2023-12-17T10:38:08.408Z,9.457212
2023-12-17T10:39:08.429Z,9.457288
2023-12-17T10:40:08.412Z,9.457273
2023-12-17T10:41:08.370Z,9.457301
2023-12-17T10:42:08.394Z,9.457299
2023-12-17T10:43:08.353Z,9.457386
2023-12-17T10:44:08.346Z,9.457407
2023-12-17T10:45:08.358Z,9.457330
2023-12-17T10:46:08.305Z,9.457348
2023-12-17T10:47:08.326Z,9.457422
2023-12-17T10:48:09.607Z,9.457344
2023-12-17T10:49:08.463Z,9.457407
2023-12-17T10:50:08.281Z,9.457357
2023-12-17T10:51:08.259Z,9.457358
2023-12-17T10:52:08.250Z,9.457430
2023-12-17T10:53:08.270Z,9.457236
2023-12-17T10:54:08.279Z,9.457211
2023-12-17T10:55:08.226Z,9.457284
2023-12-17T10:56:08.205Z,9.457462
2023-12-17T10:57:08.237Z,9.457377
2023-12-17T10:58:08.199Z,9.457244
2023-12-17T10:59:08.169Z,9.457339
2023-12-17T11:00:08.208Z,9.457463
2023-12-17T11:01:08.187Z,9.457322
2023-12-17T11:02:08.169Z,9.457310
2023-12-17T11:03:08.302Z,9.457270
2023-12-17T11:04:08.176Z,9.457108
2023-12-17T11:05:08.147Z,9.457104
2023-12-17T11:06:08.165Z,9.457068
2023-12-17T11:07:08.716Z,9.457260
2023-12-17T11:08:08.079Z,9.457338
2023-12-17T11:09:08.101Z,9.457171
2023-12-17T11:10:08.060Z,9.457211
2023-12-17T11:11:08.086Z,9.457279
2023-12-17T11:12:08.095Z,9.457223
2023-12-17T11:13:08.038Z,9.457211
2023-12-17T11:14:08.125Z,9.457310
2023-12-17T11:15:08.091Z,9.457310
2023-12-17T11:16:08.007Z,9.457170
2023-12-17T11:17:07.998Z,9.457288
2023-12-17T11:18:08.049Z,9.457118
2023-12-17T11:19:08.093Z,9.457307
2023-12-17T11:20:07.983Z,9.457063
2023-12-17T11:21:07.980Z,9.457195
2023-12-17T11:22:07.936Z,9.457227
2023-12-17T11:23:07.931Z,9.457114
2023-12-17T11:24:07.932Z,9.457179
2023-12-17T11:25:07.964Z,9.457230
2023-12-17T11:26:07.902Z,9.457306
2023-12-17T11:27:07.936Z,9.457297
2023-12-17T11:28:07.935Z,9.457232
2023-12-17T11:29:07.868Z,9.457271
2023-12-17T11:30:07.982Z,9.457357
2023-12-17T11:31:08.035Z,9.457294
2023-12-17T11:32:07.838Z,9.457153
2023-12-17T11:33:08.021Z,9.457218
2023-12-17T11:34:07.900Z,9.457330
2023-12-17T11:35:07.820Z,9.457314
2023-12-17T11:36:07.856Z,9.457260
2023-12-17T11:37:07.797Z,9.457334
2023-12-17T11:38:07.872Z,9.457310
2023-12-17T11:39:07.790Z,9.457220
2023-12-17T11:40:07.853Z,9.457288
2023-12-17T11:41:07.742Z,9.457175
2023-12-17T11:42:07.762Z,9.457138
2023-12-17T11:43:07.735Z,9.457160
2023-12-17T11:44:07.727Z,9.457247
2023-12-17T11:45:07.777Z,9.457190
2023-12-17T11:46:07.685Z,9.457216
2023-12-17T11:47:08.683Z,9.457124
2023-12-17T11:48:07.753Z,9.457171
2023-12-17T11:49:07.741Z,9.457218
2023-12-17T11:50:07.710Z,9.457320
2023-12-17T11:51:07.695Z,9.457431